createdAt,value
2023-03-22T00:00:24.020Z,16.10
2023-03-22T00:01:23.354Z,16.20
2023-03-22T00:02:22.870Z,16.10
2023-03-22T00:03:23.042Z,16.03
2023-03-22T00:04:22.615Z,16.13
2023-03-22T00:05:22.636Z,16.23
2023-03-22T00:06:22.882Z,16.29
2023-03-22T00:07:23.225Z,16.17
2023-03-22T00:08:22.653Z,16.29
2023-03-22T00:09:23.240Z,16.37
2023-03-22T00:10:22.462Z,16.41
2023-03-22T00:11:22.696Z,16.37
2023-03-22T00:12:22.679Z,16.40
2023-03-22T00:13:22.536Z,16.40
2023-03-22T00:14:22.338Z,16.51
2023-03-22T00:15:22.188Z,16.52
2023-03-22T00:16:22.617Z,16.45
2023-03-22T00:17:22.985Z,16.49
2023-03-22T00:18:22.171Z,16.50
2023-03-22T00:19:22.309Z,16.54
2023-03-22T00:20:22.939Z,16.56
2023-03-22T00:21:22.934Z,16.53
2023-03-22T00:22:22.806Z,16.54
2023-03-22T00:23:22.471Z,16.57
2023-03-22T00:24:22.631Z,16.62
2023-03-22T00:25:22.936Z,16.57
2023-03-22T00:26:22.775Z,16.61
2023-03-22T00:27:22.488Z,16.68
2023-03-22T00:28:22.547Z,16.75
2023-03-22T00:29:22.593Z,16.75
2023-03-22T00:30:23.017Z,16.73
2023-03-22T00:31:22.670Z,16.70
2023-03-22T00:32:22.575Z,16.73
2023-03-22T00:33:22.710Z,16.58
2023-03-22T00:34:23.232Z,16.53
2023-03-22T00:35:23.097Z,16.62
2023-03-22T00:36:22.403Z,16.65
2023-03-22T00:37:22.770Z,16.64
2023-03-22T00:38:29.939Z,16.73
2023-03-22T00:39:22.610Z,16.70
2023-03-22T00:40:22.854Z,16.58
2023-03-22T00:41:22.674Z,16.55
2023-03-22T00:42:22.226Z,16.39
2023-03-22T00:43:22.585Z,16.41
2023-03-22T00:44:22.820Z,16.43
2023-03-22T00:45:22.339Z,16.5
2023-03-22T00:46:22.079Z,16.48
2023-03-22T00:47:22.636Z,16.48
2023-03-22T00:48:22.629Z,16.51
2023-03-22T00:49:22.291Z,16.60
2023-03-22T00:50:23.060Z,16.52
2023-03-22T00:51:22.785Z,16.43
2023-03-22T00:52:22.738Z,16.43
2023-03-22T00:53:22.392Z,16.49
2023-03-22T00:54:22.253Z,16.53
2023-03-22T00:55:22.794Z,16.53
2023-03-22T00:56:22.207Z,16.59
2023-03-22T00:57:22.823Z,16.67
2023-03-22T00:58:22.054Z,16.69
2023-03-22T00:59:22.622Z,16.61
2023-03-22T01:00:23.650Z,16.54
2023-03-22T01:01:25.857Z,16.57
2023-03-22T01:02:22.735Z,16.51
2023-03-22T01:03:22.503Z,16.48
2023-03-22T01:04:22.108Z,16.41
2023-03-22T01:05:22.506Z,16.30
2023-03-22T01:06:22.482Z,16.28
2023-03-22T01:07:27.627Z,16.38
2023-03-22T01:08:22.147Z,16.36
2023-03-22T01:09:22.940Z,16.43
2023-03-22T01:10:22.367Z,16.49
2023-03-22T01:11:21.872Z,16.5
2023-03-22T01:12:22.206Z,16.36
2023-03-22T01:13:22.489Z,16.33
2023-03-22T01:14:22.655Z,16.45
2023-03-22T01:15:22.755Z,16.30
2023-03-22T01:16:22.568Z,16.42
2023-03-22T01:17:22.164Z,16.46
2023-03-22T01:18:23.021Z,16.51
2023-03-22T01:19:22.514Z,16.49
2023-03-22T01:20:22.359Z,16.45
2023-03-22T01:21:22.157Z,16.34
2023-03-22T01:22:22.392Z,16.39
2023-03-22T01:23:22.179Z,16.28
2023-03-22T01:24:22.941Z,16.33
2023-03-22T01:25:22.546Z,16.40
2023-03-22T01:26:22.023Z,16.32
2023-03-22T01:27:22.701Z,16.30
2023-03-22T01:28:22.139Z,16.31
2023-03-22T01:29:22.748Z,16.26
2023-03-22T01:30:23.151Z,16.31
2023-03-22T01:31:22.611Z,16.28
2023-03-22T01:32:22.435Z,16.25
2023-03-22T01:33:21.658Z,16.27
2023-03-22T01:34:22.420Z,16.28
2023-03-22T01:35:22.721Z,16.37
2023-03-22T01:36:22.148Z,16.44
2023-03-22T01:37:36.662Z,16.45
2023-03-22T01:38:22.331Z,16.38
2023-03-22T01:39:22.263Z,16.25
2023-03-22T01:40:22.190Z,16.23
2023-03-22T01:41:22.353Z,16.25
2023-03-22T01:42:22.190Z,16.29
2023-03-22T01:43:22.506Z,16.30
2023-03-22T01:44:22.262Z,16.35
2023-03-22T01:45:22.560Z,16.36
2023-03-22T01:46:22.072Z,16.33
2023-03-22T01:47:22.705Z,16.33
2023-03-22T01:48:22.228Z,16.36
2023-03-22T01:49:22.041Z,16.33
2023-03-22T01:50:23.039Z,16.36
2023-03-22T01:51:22.442Z,16.29
2023-03-22T01:52:22.078Z,16.27
2023-03-22T01:53:22.258Z,16.18
2023-03-22T01:54:22.649Z,16.17
2023-03-22T01:55:21.937Z,16.11
2023-03-22T01:56:22.170Z,16.14
2023-03-22T01:57:22.852Z,16.17
2023-03-22T01:58:22.051Z,16.18
2023-03-22T01:59:22.550Z,16.17
2023-03-22T02:00:23.054Z,16.15
2023-03-22T02:01:22.957Z,16.09
2023-03-22T02:02:22.327Z,16.02
2023-03-22T02:03:22.346Z,15.98
2023-03-22T02:04:22.376Z,15.92
2023-03-22T02:05:22.538Z,15.91
2023-03-22T02:06:22.654Z,15.91
2023-03-22T02:07:22.727Z,15.87
2023-03-22T02:08:22.438Z,15.73
2023-03-22T02:09:22.570Z,15.64
2023-03-22T02:10:22.507Z,15.64
2023-03-22T02:11:22.604Z,15.59
2023-03-22T02:12:22.138Z,15.76
2023-03-22T02:13:22.749Z,15.72
2023-03-22T02:14:23.386Z,15.64
2023-03-22T02:16:24.173Z,15.59
2023-03-22T02:17:22.513Z,15.65
2023-03-22T02:18:22.424Z,15.75
2023-03-22T02:19:21.932Z,15.76
2023-03-22T02:20:22.420Z,15.66
2023-03-22T02:21:22.336Z,15.60
2023-03-22T02:22:22.379Z,15.59
2023-03-22T02:23:22.546Z,15.61
2023-03-22T02:24:22.298Z,15.65
2023-03-22T02:25:22.505Z,15.66
2023-03-22T02:26:22.053Z,15.67
2023-03-22T02:27:22.243Z,15.44
2023-03-22T02:28:22.098Z,15.27
2023-03-22T02:29:22.590Z,15.38
2023-03-22T02:30:21.943Z,15.44
2023-03-22T02:31:22.739Z,15.47
2023-03-22T02:32:22.080Z,15.50
2023-03-22T02:33:22.662Z,15.57
2023-03-22T02:34:22.401Z,15.52
2023-03-22T02:35:22.387Z,15.56
2023-03-22T02:36:22.466Z,15.54
2023-03-22T02:37:22.706Z,15.53
2023-03-22T02:38:21.960Z,15.58
2023-03-22T02:39:22.514Z,15.55
2023-03-22T02:40:22.469Z,15.62
2023-03-22T02:41:21.983Z,15.62
2023-03-22T02:42:22.782Z,15.65
2023-03-22T02:43:21.859Z,15.68
2023-03-22T02:44:22.377Z,15.72
2023-03-22T02:45:22.786Z,15.75
2023-03-22T02:46:22.545Z,15.81
2023-03-22T02:47:22.469Z,15.88
2023-03-22T02:48:22.335Z,15.92
2023-03-22T02:49:21.881Z,15.93
2023-03-22T02:50:22.972Z,15.95
2023-03-22T02:51:21.964Z,15.90
2023-03-22T02:52:22.867Z,15.85
2023-03-22T02:53:22.200Z,15.90
2023-03-22T02:54:22.349Z,15.93
2023-03-22T02:55:22.016Z,15.93
2023-03-22T02:56:22.663Z,15.94
2023-03-22T02:57:21.937Z,15.94
2023-03-22T02:58:21.782Z,15.92
2023-03-22T02:59:22.018Z,15.94
2023-03-22T03:00:22.955Z,15.96
2023-03-22T03:01:22.692Z,15.96
2023-03-22T03:02:22.280Z,15.94
2023-03-22T03:03:22.574Z,15.96
2023-03-22T03:04:22.387Z,15.96
2023-03-22T03:05:22.495Z,15.93
2023-03-22T03:06:23.035Z,15.93
2023-03-22T03:07:22.881Z,15.92
2023-03-22T03:08:22.365Z,15.89
2023-03-22T03:09:23.112Z,15.89
2023-03-22T03:10:22.661Z,15.90
2023-03-22T03:11:21.922Z,15.92
2023-03-22T03:12:21.976Z,15.81
2023-03-22T03:13:22.260Z,15.77
2023-03-22T03:14:22.571Z,15.85
2023-03-22T03:15:22.654Z,15.87
2023-03-22T03:16:21.776Z,15.89
2023-03-22T03:17:21.985Z,15.90
2023-03-22T03:18:21.935Z,15.90
2023-03-22T03:19:22.089Z,15.82
2023-03-22T03:20:23.034Z,15.87
2023-03-22T03:21:21.948Z,15.89
2023-03-22T03:22:21.959Z,15.86
2023-03-22T03:23:22.064Z,15.82
2023-03-22T03:24:22.444Z,15.86
2023-03-22T03:25:22.089Z,15.88
2023-03-22T03:26:22.362Z,15.82
2023-03-22T03:27:22.498Z,15.82
2023-03-22T03:28:22.440Z,15.83
2023-03-22T03:29:23.077Z,15.84
2023-03-22T03:30:22.792Z,15.85
2023-03-22T03:31:22.520Z,15.85
2023-03-22T03:32:22.003Z,15.79
2023-03-22T03:33:21.946Z,15.75
2023-03-22T03:34:22.211Z,15.78
2023-03-22T03:35:22.936Z,15.79
2023-03-22T03:36:22.581Z,15.80
2023-03-22T03:37:22.194Z,15.82
2023-03-22T03:38:21.925Z,15.75
2023-03-22T03:39:22.128Z,15.74
2023-03-22T03:40:22.431Z,15.58
2023-03-22T03:41:21.851Z,15.58
2023-03-22T03:42:21.920Z,15.52
2023-03-22T03:43:22.096Z,15.5
2023-03-22T03:44:22.124Z,15.47
2023-03-22T03:45:22.338Z,15.48
2023-03-22T03:46:22.230Z,15.56
2023-03-22T03:47:22.507Z,15.58
2023-03-22T03:48:21.951Z,15.55
2023-03-22T03:49:22.053Z,15.55
2023-03-22T03:50:22.340Z,15.58
2023-03-22T03:51:22.552Z,15.63
2023-03-22T03:52:22.088Z,15.62
2023-03-22T03:53:22.233Z,15.69
2023-03-22T03:54:36.497Z,15.72
2023-03-22T03:55:22.334Z,15.71
2023-03-22T03:56:22.500Z,15.72
2023-03-22T03:57:21.920Z,15.71
2023-03-22T03:58:21.976Z,15.63
2023-03-22T03:59:22.841Z,15.60
2023-03-22T04:00:37.237Z,15.64
2023-03-22T04:01:22.740Z,15.67
2023-03-22T04:02:22.871Z,15.71
2023-03-22T04:03:22.522Z,15.71
2023-03-22T04:04:22.693Z,15.72
2023-03-22T04:05:22.418Z,15.71
2023-03-22T04:06:22.459Z,15.64
2023-03-22T04:07:21.751Z,15.64
2023-03-22T04:08:22.107Z,15.58
2023-03-22T04:09:22.469Z,15.57
2023-03-22T04:10:23.220Z,15.57
2023-03-22T04:11:22.051Z,15.51
2023-03-22T04:12:22.481Z,15.49
2023-03-22T04:13:22.573Z,15.51
2023-03-22T04:14:21.951Z,15.56
2023-03-22T04:15:22.494Z,15.53
2023-03-22T04:16:22.388Z,15.53
2023-03-22T04:17:22.526Z,15.47
2023-03-22T04:18:21.948Z,15.31
2023-03-22T04:19:22.923Z,15.28
2023-03-22T04:20:44.664Z,15.33
2023-03-22T04:21:22.440Z,15.40
2023-03-22T04:22:22.266Z,15.40
2023-03-22T04:23:22.845Z,15.43
2023-03-22T04:24:23.070Z,15.46
2023-03-22T04:25:22.691Z,15.45
2023-03-22T04:26:22.268Z,15.40
2023-03-22T04:27:22.555Z,15.38
2023-03-22T04:28:22.073Z,15.40
2023-03-22T04:29:22.423Z,15.43
2023-03-22T04:30:22.147Z,15.39
2023-03-22T04:31:22.453Z,15.38
2023-03-22T04:32:22.037Z,15.39
2023-03-22T04:33:23.186Z,15.39
2023-03-22T04:34:22.519Z,15.40
2023-03-22T04:35:22.280Z,15.18
2023-03-22T04:36:22.883Z,15.13
2023-03-22T04:37:22.317Z,15.18
2023-03-22T04:38:21.981Z,15.05
2023-03-22T04:39:22.636Z,14.98
2023-03-22T04:40:22.543Z,15.11
2023-03-22T04:41:22.870Z,15.05
2023-03-22T04:42:22.160Z,15.02
2023-03-22T04:43:22.613Z,15.14
2023-03-22T04:44:22.416Z,15.20
2023-03-22T04:45:22.678Z,15.24
2023-03-22T04:46:22.902Z,15.22
2023-03-22T04:47:22.537Z,15.22
2023-03-22T04:48:22.084Z,15.25
2023-03-22T04:49:22.545Z,15.25
2023-03-22T04:50:22.889Z,15.28
2023-03-22T04:51:22.161Z,15.32
2023-03-22T04:52:22.451Z,15.36
2023-03-22T04:53:21.820Z,15.35
2023-03-22T04:54:22.650Z,15.34
2023-03-22T04:55:22.307Z,15.31
2023-03-22T04:56:22.386Z,15.35
2023-03-22T04:57:21.883Z,15.27
2023-03-22T04:58:22.166Z,15.33
2023-03-22T04:59:22.413Z,15.38
2023-03-22T05:00:24.077Z,15.42
2023-03-22T05:01:23.081Z,15.45
2023-03-22T05:02:22.958Z,15.42
2023-03-22T05:03:22.696Z,15.30
2023-03-22T05:04:22.245Z,15.26
2023-03-22T05:05:22.785Z,15.29
2023-03-22T05:06:22.864Z,15.36
2023-03-22T05:07:22.316Z,15.39
2023-03-22T05:08:21.846Z,15.42
2023-03-22T05:09:23.575Z,15.43
2023-03-22T05:10:22.437Z,15.43
2023-03-22T05:11:21.949Z,15.48
2023-03-22T05:12:22.288Z,15.51
2023-03-22T05:13:22.153Z,15.49
2023-03-22T05:14:22.006Z,15.5
2023-03-22T05:15:23.252Z,15.56
2023-03-22T05:16:21.985Z,15.54
2023-03-22T05:17:22.310Z,15.5
2023-03-22T05:18:22.085Z,15.50
2023-03-22T05:19:22.660Z,15.50
2023-03-22T05:20:22.559Z,15.52
2023-03-22T05:21:22.318Z,15.56
2023-03-22T05:22:22.757Z,15.55
2023-03-22T05:23:21.994Z,15.53
2023-03-22T05:24:22.532Z,15.53
2023-03-22T05:25:22.583Z,15.57
2023-03-22T05:26:22.586Z,15.56
2023-03-22T05:27:22.481Z,15.59
2023-03-22T05:28:21.719Z,15.60
2023-03-22T05:29:22.249Z,15.60
2023-03-22T05:30:22.933Z,15.57
2023-03-22T05:31:22.401Z,15.55
2023-03-22T05:32:22.597Z,15.53
2023-03-22T05:33:22.471Z,15.52
2023-03-22T05:34:22.743Z,15.55
2023-03-22T05:35:22.423Z,15.57
2023-03-22T05:36:22.297Z,15.55
2023-03-22T05:37:22.727Z,15.56
2023-03-22T05:38:22.473Z,15.61
2023-03-22T05:39:22.415Z,15.49
2023-03-22T05:40:22.783Z,15.35
2023-03-22T05:41:22.790Z,15.42
2023-03-22T05:42:22.153Z,15.51
2023-03-22T05:43:21.763Z,15.58
2023-03-22T05:44:22.273Z,15.65
2023-03-22T05:45:23.150Z,15.72
2023-03-22T05:46:23.051Z,15.76
2023-03-22T05:47:22.599Z,15.81
2023-03-22T05:48:22.411Z,15.87
2023-03-22T05:49:22.161Z,15.89
2023-03-22T05:50:22.704Z,15.93
2023-03-22T05:51:22.815Z,15.97
2023-03-22T05:52:22.450Z,16.00
2023-03-22T05:53:22.299Z,16.01
2023-03-22T05:54:23.277Z,16.03
2023-03-22T05:55:22.493Z,16.04
2023-03-22T05:56:22.316Z,16.07
2023-03-22T05:57:22.173Z,16.09
2023-03-22T05:58:22.909Z,16.07
2023-03-22T05:59:22.798Z,16.13
2023-03-22T06:00:23.920Z,16.17
2023-03-22T06:01:22.852Z,16.18
2023-03-22T06:02:22.776Z,16.22
2023-03-22T06:03:22.802Z,16.25
2023-03-22T06:04:23.070Z,16.29
2023-03-22T06:05:22.374Z,16.34
2023-03-22T06:06:22.286Z,16.35
2023-03-22T06:07:22.749Z,16.42
2023-03-22T06:08:23.715Z,16.46
2023-03-22T06:09:28.320Z,16.52
2023-03-22T06:10:23.048Z,16.54
2023-03-22T06:11:22.707Z,16.57
2023-03-22T06:12:22.388Z,16.64
2023-03-22T06:13:22.489Z,16.69
2023-03-22T06:14:22.949Z,16.72
2023-03-22T06:15:23.019Z,16.74
2023-03-22T06:16:23.143Z,16.79
2023-03-22T06:17:22.337Z,16.80
2023-03-22T06:18:22.427Z,16.86
2023-03-22T06:19:22.722Z,16.87
2023-03-22T06:20:22.772Z,16.94
2023-03-22T06:21:22.565Z,16.93
2023-03-22T06:22:22.366Z,16.87
2023-03-22T06:23:22.413Z,16.91
2023-03-22T06:24:22.406Z,16.89
2023-03-22T06:25:22.470Z,16.95
2023-03-22T06:26:22.514Z,16.98
2023-03-22T06:27:22.956Z,17.04
2023-03-22T06:28:22.253Z,16.99
2023-03-22T06:29:22.655Z,16.96
2023-03-22T06:30:23.135Z,17.03
2023-03-22T06:31:22.845Z,16.99
2023-03-22T06:32:22.957Z,16.98
2023-03-22T06:33:23.428Z,17.07
2023-03-22T06:34:23.306Z,17.11
2023-03-22T06:35:41.162Z,17.09
2023-03-22T06:36:22.861Z,17.09
2023-03-22T06:37:23.271Z,17.09
2023-03-22T06:38:22.713Z,17.03
2023-03-22T06:39:22.705Z,17.04
2023-03-22T06:40:22.672Z,17.15
2023-03-22T06:41:22.314Z,17.21
2023-03-22T06:42:23.181Z,17.31
2023-03-22T06:43:22.773Z,17.30
2023-03-22T06:44:22.796Z,17.28
2023-03-22T06:45:23.341Z,17.24
2023-03-22T06:46:22.845Z,17.20
2023-03-22T06:47:22.926Z,17.21
2023-03-22T06:48:22.846Z,17.33
2023-03-22T06:49:22.771Z,17.36
2023-03-22T06:50:23.820Z,17.40
2023-03-22T06:51:23.918Z,17.43
2023-03-22T06:52:22.955Z,17.46
2023-03-22T06:53:23.715Z,17.46
2023-03-22T06:54:23.726Z,17.42
2023-03-22T06:55:22.832Z,17.45
2023-03-22T06:56:23.177Z,17.43
2023-03-22T06:57:22.748Z,17.40
2023-03-22T06:58:23.151Z,17.42
2023-03-22T07:00:26.079Z,17.65
2023-03-22T07:01:23.423Z,17.77
2023-03-22T07:02:22.966Z,17.77
2023-03-22T07:03:22.392Z,17.78
2023-03-22T07:04:23.078Z,17.88
2023-03-22T07:05:22.714Z,17.82
2023-03-22T07:06:22.930Z,17.81
2023-03-22T07:07:23.112Z,17.88
2023-03-22T07:08:22.296Z,17.89
2023-03-22T07:09:22.401Z,17.97
2023-03-22T07:10:22.496Z,18.03
2023-03-22T07:11:22.960Z,18.10
2023-03-22T07:12:22.938Z,18.06
2023-03-22T07:13:22.687Z,18.05
2023-03-22T07:14:22.750Z,18.15
2023-03-22T07:15:23.259Z,18.24
2023-03-22T07:16:22.810Z,18.21
2023-03-22T07:17:22.697Z,18.17
2023-03-22T07:18:23.580Z,18.21
2023-03-22T07:19:23.443Z,18.25
2023-03-22T07:20:22.875Z,18.18
2023-03-22T07:21:23.005Z,18.17
2023-03-22T07:22:22.910Z,18.24
2023-03-22T07:23:22.617Z,18.29
2023-03-22T07:24:22.659Z,18.32
2023-03-22T07:25:22.877Z,18.32
2023-03-22T07:26:23.920Z,18.33
2023-03-22T07:27:23.267Z,18.38
2023-03-22T07:28:22.833Z,18.39
2023-03-22T07:29:23.060Z,18.40
2023-03-22T07:30:23.822Z,18.45
2023-03-22T07:31:23.033Z,18.45
2023-03-22T07:32:22.980Z,18.43
2023-03-22T07:33:23.035Z,18.39
2023-03-22T07:34:22.776Z,18.51
2023-03-22T07:35:26.294Z,18.54
2023-03-22T07:36:22.563Z,18.56
2023-03-22T07:37:23.208Z,18.63
2023-03-22T07:38:22.944Z,18.72
2023-03-22T07:39:22.913Z,18.71
2023-03-22T07:40:22.999Z,18.72
2023-03-22T07:41:22.479Z,18.70
2023-03-22T07:42:22.908Z,18.72
2023-03-22T07:43:22.494Z,18.82
2023-03-22T07:44:22.471Z,18.88
2023-03-22T07:45:22.879Z,18.86
2023-03-22T07:46:23.136Z,18.82
2023-03-22T07:47:39.467Z,18.83
2023-03-22T07:48:23.226Z,18.78
2023-03-22T07:49:22.985Z,18.76
2023-03-22T07:50:23.277Z,18.70
2023-03-22T07:51:23.577Z,18.68
2023-03-22T07:52:23.325Z,18.62
2023-03-22T07:53:23.067Z,18.66
2023-03-22T07:54:33.565Z,18.64
2023-03-22T07:55:22.466Z,18.53
2023-03-22T07:56:23.077Z,18.53
2023-03-22T07:57:22.865Z,18.53
2023-03-22T07:58:22.614Z,18.51
2023-03-22T07:59:22.971Z,18.50
2023-03-22T08:00:24.996Z,18.56
2023-03-22T08:01:23.159Z,18.50
2023-03-22T08:02:23.187Z,18.47
2023-03-22T08:03:22.578Z,18.52
2023-03-22T08:04:22.781Z,18.54
2023-03-22T08:05:23.261Z,18.52
2023-03-22T08:06:22.881Z,18.56
2023-03-22T08:07:22.977Z,18.58
2023-03-22T08:08:22.792Z,18.54
2023-03-22T08:09:22.652Z,18.60
2023-03-22T08:10:23.849Z,18.65
2023-03-22T08:11:22.692Z,18.70
2023-03-22T08:12:23.020Z,18.68
2023-03-22T08:13:22.541Z,18.74
2023-03-22T08:14:34.087Z,18.82
2023-03-22T08:15:23.596Z,18.84
2023-03-22T08:16:23.159Z,18.86
2023-03-22T08:17:23.604Z,18.92
2023-03-22T08:18:23.194Z,19.01
2023-03-22T08:19:23.212Z,19.05
2023-03-22T08:20:23.611Z,19.11
2023-03-22T08:21:23.024Z,19.14
2023-03-22T08:22:22.966Z,19.20
2023-03-22T08:23:38.482Z,19.29
2023-03-22T08:24:28.474Z,19.32
2023-03-22T08:25:23.144Z,19.31
2023-03-22T08:26:28.424Z,19.32
2023-03-22T08:27:22.705Z,19.27
2023-03-22T08:28:22.915Z,19.27
2023-03-22T08:29:23.812Z,19.29
2023-03-22T08:30:23.802Z,19.32
2023-03-22T08:31:23.215Z,19.38
2023-03-22T08:32:22.711Z,19.44
2023-03-22T08:33:22.740Z,19.50
2023-03-22T08:34:23.276Z,19.55
2023-03-22T08:35:22.779Z,19.65
2023-03-22T08:36:23.849Z,19.67
2023-03-22T08:37:24.325Z,19.76
2023-03-22T08:38:22.867Z,19.86
2023-03-22T08:39:24.742Z,19.87
2023-03-22T08:40:23.439Z,20.00
2023-03-22T08:41:23.003Z,20.06
2023-03-22T08:42:22.866Z,20.13
2023-03-22T08:43:23.425Z,20.14
2023-03-22T08:44:23.751Z,20.16
2023-03-22T08:45:22.970Z,20.29
2023-03-22T08:46:23.439Z,20.34
2023-03-22T08:47:22.557Z,20.35
2023-03-22T08:48:22.740Z,20.43
2023-03-22T08:49:23.445Z,20.41
2023-03-22T08:50:23.475Z,20.44
2023-03-22T08:51:22.660Z,20.47
2023-03-22T08:52:23.268Z,20.51
2023-03-22T08:53:23.059Z,20.55
2023-03-22T08:54:23.334Z,20.54
2023-03-22T08:55:22.989Z,20.57
2023-03-22T08:56:22.987Z,20.60
2023-03-22T08:57:23.253Z,20.54
2023-03-22T08:58:22.832Z,20.51
2023-03-22T08:59:23.244Z,20.51
2023-03-22T09:00:24.524Z,20.50
2023-03-22T09:01:23.410Z,20.32
2023-03-22T09:02:22.911Z,20.22
2023-03-22T09:03:23.850Z,20.23
2023-03-22T09:04:23.952Z,20.29
2023-03-22T09:05:23.787Z,20.31
2023-03-22T09:06:23.220Z,20.32
2023-03-22T09:07:22.849Z,20.34
2023-03-22T09:08:22.870Z,20.34
2023-03-22T09:09:23.117Z,20.11
2023-03-22T09:10:23.448Z,20.04
2023-03-22T09:11:23.959Z,19.98
2023-03-22T09:12:22.781Z,20.08
2023-03-22T09:13:22.766Z,20.02
2023-03-22T09:14:23.122Z,19.92
2023-03-22T09:15:23.376Z,19.95
2023-03-22T09:17:25.779Z,19.93
2023-03-22T09:18:23.086Z,19.96
2023-03-22T09:19:23.141Z,19.97
2023-03-22T09:20:23.705Z,19.91
2023-03-22T09:21:23.293Z,19.83
2023-03-22T09:22:23.072Z,19.82
2023-03-22T09:23:22.899Z,19.88
2023-03-22T09:24:23.619Z,19.89
2023-03-22T09:25:24.100Z,19.88
2023-03-22T09:26:23.067Z,19.91
2023-03-22T09:27:22.627Z,19.96
2023-03-22T09:28:22.743Z,19.95
2023-03-22T09:29:23.816Z,19.99
2023-03-22T09:30:23.687Z,20.00
2023-03-22T09:31:23.608Z,20.04
2023-03-22T09:32:23.064Z,20.06
2023-03-22T09:33:23.123Z,20.03
2023-03-22T09:34:24.356Z,20.07
2023-03-22T09:35:23.905Z,20.15
2023-03-22T09:36:23.698Z,20.19
2023-03-22T09:37:23.518Z,20.28
2023-03-22T09:38:23.359Z,20.38
2023-03-22T09:39:23.450Z,20.49
2023-03-22T09:40:23.476Z,20.64
2023-03-22T09:41:22.642Z,20.71
2023-03-22T09:42:23.200Z,20.79
2023-03-22T09:43:22.748Z,20.86
2023-03-22T09:44:23.448Z,20.94
2023-03-22T09:45:23.712Z,21.01
2023-03-22T09:46:22.989Z,21.06
2023-03-22T09:47:24.467Z,20.97
2023-03-22T09:48:23.355Z,20.99
2023-03-22T09:49:23.803Z,21.06
2023-03-22T09:50:22.899Z,21.09
2023-03-22T09:51:23.427Z,21.06
2023-03-22T09:52:23.076Z,21.09
2023-03-22T09:53:22.969Z,21.09
2023-03-22T09:54:23.331Z,21.06
2023-03-22T09:55:23.133Z,21.01
2023-03-22T09:56:23.366Z,20.86
2023-03-22T09:57:23.725Z,20.94
2023-03-22T09:58:23.001Z,21.03
2023-03-22T09:59:23.390Z,21.09
2023-03-22T10:00:24.482Z,21.17
2023-03-22T10:01:24.008Z,21.11
2023-03-22T10:02:23.696Z,21.07
2023-03-22T10:03:23.648Z,21.15
2023-03-22T10:05:25.916Z,21.18
2023-03-22T10:06:22.774Z,21.21
2023-03-22T10:07:22.408Z,21.21
2023-03-22T10:08:22.719Z,21.29
2023-03-22T10:09:23.833Z,21.32
2023-03-22T10:10:23.075Z,21.35
2023-03-22T10:11:23.124Z,21.41
2023-03-22T10:12:23.269Z,21.44
2023-03-22T10:13:23.202Z,21.40
2023-03-22T10:14:23.848Z,21.45
2023-03-22T10:15:23.807Z,21.46
2023-03-22T10:16:23.176Z,21.45
2023-03-22T10:17:23.297Z,21.38
2023-03-22T10:18:23.812Z,21.38
2023-03-22T10:19:23.241Z,21.38
2023-03-22T10:20:23.967Z,21.38
2023-03-22T10:21:23.754Z,21.38
2023-03-22T10:22:23.101Z,21.43
2023-03-22T10:23:23.343Z,21.09
2023-03-22T10:24:24.284Z,21.14
2023-03-22T10:25:24.211Z,21.30
2023-03-22T10:26:23.333Z,21.24
2023-03-22T10:27:23.419Z,21.27
2023-03-22T10:28:23.893Z,21.31
2023-03-22T10:29:23.114Z,21.16
2023-03-22T10:30:24.132Z,21.31
2023-03-22T10:31:23.569Z,21.39
2023-03-22T10:32:23.759Z,21.48
2023-03-22T10:33:24.038Z,21.54
2023-03-22T10:34:23.590Z,21.58
2023-03-22T10:35:23.302Z,21.58
2023-03-22T10:36:23.679Z,21.61
2023-03-22T10:37:23.893Z,21.60
2023-03-22T10:38:23.382Z,21.66
2023-03-22T10:39:23.697Z,21.67
2023-03-22T10:40:23.137Z,21.62
2023-03-22T10:41:24.148Z,21.72
2023-03-22T10:42:23.624Z,21.71
2023-03-22T10:43:23.387Z,21.77
2023-03-22T10:44:23.916Z,21.75
2023-03-22T10:45:24.896Z,21.67
2023-03-22T10:46:23.326Z,21.68
2023-03-22T10:47:23.549Z,21.59
2023-03-22T10:48:23.548Z,21.58
2023-03-22T10:49:23.709Z,21.55
2023-03-22T10:50:23.690Z,21.54
2023-03-22T10:51:23.601Z,21.53
2023-03-22T10:52:23.375Z,21.52
2023-03-22T10:53:23.740Z,21.5
2023-03-22T10:54:25.993Z,21.41
2023-03-22T10:55:24.274Z,21.38
2023-03-22T10:56:23.498Z,21.40
2023-03-22T10:57:23.783Z,21.37
2023-03-22T10:58:23.568Z,21.35
2023-03-22T10:59:28.652Z,21.30
2023-03-22T11:00:26.140Z,21.25
2023-03-22T11:01:30.928Z,21.21
2023-03-22T11:02:25.191Z,21.11
2023-03-22T11:03:24.948Z,21.06
2023-03-22T11:04:24.607Z,21.10
2023-03-22T11:05:30.786Z,21.01
2023-03-22T11:06:23.474Z,20.93
2023-03-22T11:07:22.981Z,20.94
2023-03-22T11:08:23.353Z,20.93
2023-03-22T11:09:23.614Z,20.92
2023-03-22T11:10:24.217Z,20.81
2023-03-22T11:11:23.522Z,20.80
2023-03-22T11:12:23.602Z,20.81
2023-03-22T11:13:23.929Z,20.78
2023-03-22T11:14:24.281Z,20.76
2023-03-22T11:15:24.322Z,20.69
2023-03-22T11:16:23.455Z,20.73
2023-03-22T11:17:38.141Z,20.70
2023-03-22T11:18:23.870Z,20.72
2023-03-22T11:19:23.856Z,20.73
2023-03-22T11:20:23.401Z,20.69
2023-03-22T11:21:38.270Z,20.55
2023-03-22T11:22:23.623Z,20.5
2023-03-22T11:23:23.618Z,20.55
2023-03-22T11:24:23.518Z,20.56
2023-03-22T11:25:42.844Z,20.58
2023-03-22T11:27:23.663Z,20.59
2023-03-22T11:28:23.706Z,20.60
2023-03-22T11:29:22.876Z,20.49
2023-03-22T11:30:23.708Z,20.44
2023-03-22T11:31:23.728Z,20.45
2023-03-22T11:32:23.577Z,20.49
2023-03-22T11:33:23.681Z,20.45
2023-03-22T11:34:23.661Z,20.45
2023-03-22T11:35:23.299Z,20.47
2023-03-22T11:36:23.242Z,20.45
2023-03-22T11:37:23.468Z,20.38
2023-03-22T11:38:23.853Z,20.43
2023-03-22T11:39:23.497Z,20.38
2023-03-22T11:40:24.385Z,20.38
2023-03-22T11:41:23.575Z,20.42
2023-03-22T11:42:23.521Z,20.41
2023-03-22T11:44:27.197Z,20.46
2023-03-22T11:45:24.393Z,20.46
2023-03-22T11:46:23.234Z,20.42
2023-03-22T11:48:28.111Z,20.41
2023-03-22T11:49:23.466Z,20.38
2023-03-22T11:50:23.717Z,20.32
2023-03-22T11:51:23.945Z,20.28
2023-03-22T11:52:23.150Z,20.15
2023-03-22T11:53:23.466Z,20.23
2023-03-22T11:54:24.063Z,20.18
2023-03-22T11:55:24.316Z,20.19
2023-03-22T11:56:23.709Z,20.18
2023-03-22T11:57:23.751Z,20.17
2023-03-22T11:58:24.141Z,20.12
2023-03-22T11:59:23.589Z,20.09
2023-03-22T12:00:24.080Z,20.06
2023-03-22T12:01:24.003Z,20.05
2023-03-22T12:02:24.187Z,20.09
2023-03-22T12:03:23.964Z,20.15
2023-03-22T12:04:24.452Z,20.16
2023-03-22T12:05:23.798Z,20.18
2023-03-22T12:06:23.467Z,20.18
2023-03-22T12:07:22.845Z,20.13
2023-03-22T12:08:23.055Z,20.10
2023-03-22T12:09:23.578Z,20.04
2023-03-22T12:10:23.743Z,20.02
2023-03-22T12:11:23.607Z,20.00
2023-03-22T12:12:23.241Z,20.06
2023-03-22T12:13:24.228Z,20.07
2023-03-22T12:14:24.062Z,20.10
2023-03-22T12:15:24.098Z,20.06
2023-03-22T12:16:24.944Z,20.06
2023-03-22T12:17:23.560Z,20.04
2023-03-22T12:18:23.623Z,20.03
2023-03-22T12:19:24.189Z,20.03
2023-03-22T12:20:24.380Z,20.04
2023-03-22T12:21:24.125Z,20.08
2023-03-22T12:22:24.637Z,20.09
2023-03-22T12:23:23.989Z,20.09
2023-03-22T12:24:24.445Z,20.09
2023-03-22T12:25:24.265Z,20.07
2023-03-22T12:26:23.488Z,20.02
2023-03-22T12:27:23.874Z,20.04
2023-03-22T12:28:23.645Z,20.13
2023-03-22T12:29:24.243Z,20.20
2023-03-22T12:30:24.281Z,20.21
2023-03-22T12:31:23.797Z,20.18
2023-03-22T12:32:23.660Z,20.20
2023-03-22T12:33:24.040Z,20.20
2023-03-22T12:34:23.600Z,20.20
2023-03-22T12:35:23.914Z,20.21
2023-03-22T12:36:23.993Z,20.20
2023-03-22T12:37:23.362Z,20.16
2023-03-22T12:38:23.656Z,20.20
2023-03-22T12:39:24.383Z,20.20
2023-03-22T12:40:23.993Z,20.19
2023-03-22T12:41:23.295Z,20.21
2023-03-22T12:42:23.394Z,20.24
2023-03-22T12:43:23.007Z,20.23
2023-03-22T12:44:23.870Z,20.23
2023-03-22T12:45:24.132Z,20.29
2023-03-22T12:46:23.742Z,20.25
2023-03-22T12:47:24.814Z,20.25
2023-03-22T12:48:24.371Z,20.25
2023-03-22T12:49:24.324Z,20.26
2023-03-22T12:50:24.352Z,20.29
2023-03-22T12:51:23.731Z,20.23
2023-03-22T12:52:23.327Z,20.01
2023-03-22T12:53:23.601Z,20.05
2023-03-22T12:54:24.277Z,20.09
2023-03-22T12:55:24.669Z,20.18
2023-03-22T12:56:23.957Z,20.13
2023-03-22T12:57:24.086Z,20.12
2023-03-22T12:58:23.549Z,20.14
2023-03-22T12:59:23.490Z,20.08